Time;durP1;ratioP1;P1;durP2;ratioP2;P2;SDS_P1;SDS_P2;PMS_P1;PMS_P2;Temp;Humidity;BMP_temperature;BMP_pressure;BME280_temperature;BME280_humidity;BME280_pressure;Samples;Min_cycle;Max_cycle;Signal;HPM_P1;HPM_P2
2023/10/18 00:03:09;;;;;;;14.13;8.60;;;;;;;;;;4966625;28;20035;-82
2023/10/18 00:05:54;;;;;;;13.93;8.82;;;;;;;;;;4954558;28;20231;-82
2023/10/18 00:08:40;;;;;;;14.75;8.43;;;;;;;;;;4951518;28;20031;-82
2023/10/18 00:11:25;;;;;;;13.48;7.97;;;;;;;;;;4963984;28;20082;-83
2023/10/18 00:14:11;;;;;;;14.20;8.57;;;;;;;;;;4967565;28;20063;-83
2023/10/18 00:16:59;;;;;;;13.60;8.07;;;;;;;;;;4965224;28;20033;-83
2023/10/18 00:19:44;;;;;;;16.52;10.00;;;;;;;;;;4951735;29;20059;-83
2023/10/18 00:22:29;;;;;;;14.00;8.48;;;;;;;;;;4952508;29;20383;-83
2023/10/18 00:25:16;;;;;;;12.32;8.07;;;;;;;;;;4958591;28;20019;-83
2023/10/18 00:28:01;;;;;;;18.27;9.27;;;;;;;;;;4952877;28;20061;-83
2023/10/18 00:30:47;;;;;;;14.35;7.95;;;;;;;;;;4954755;28;20038;-82
2023/10/18 00:33:32;;;;;;;12.30;7.78;;;;;;;;;;4952362;29;20052;-81
2023/10/18 00:36:17;;;;;;;11.40;7.53;;;;;;;;;;4951794;28;20020;-80
2023/10/18 00:39:19;;;;;;;14.15;9.25;;;;;;;;;;4966357;28;20034;-83
2023/10/18 00:45:09;;;;;;;15.60;9.02;;;;;;;;;;4949385;28;20031;-82
2023/10/18 00:47:56;;;;;;;12.63;8.65;;;;;;;;;;4951219;29;20039;-82
2023/10/18 00:50:43;;;;;;;14.10;8.20;;;;;;;;;;4949259;29;20077;-82
2023/10/18 00:53:30;;;;;;;14.73;8.48;;;;;;;;;;4955563;28;20050;-81
2023/10/18 00:56:16;;;;;;;13.70;8.57;;;;;;;;;;4955355;28;20446;-82
2023/10/18 00:59:04;;;;;;;15.65;8.88;;;;;;;;;;4951604;28;20046;-82
2023/10/18 01:02:11;;;;;;;13.05;8.48;;;;;;;;;;4950986;28;20038;-82
2023/10/18 01:04:56;;;;;;;13.50;8.90;;;;;;;;;;4958287;28;20026;-81
2023/10/18 01:07:42;;;;;;;15.40;9.77;;;;;;;;;;4951089;28;20081;-81
2023/10/18 01:10:30;;;;;;;13.57;8.82;;;;;;;;;;4963518;28;20038;-81
2023/10/18 01:13:16;;;;;;;13.90;8.52;;;;;;;;;;4950342;29;20063;-81
2023/10/18 01:16:01;;;;;;;14.88;8.68;;;;;;;;;;4958492;28;20041;-81
2023/10/18 01:18:47;;;;;;;13.70;9.00;;;;;;;;;;4942952;28;20062;-82
2023/10/18 01:21:33;;;;;;;15.20;8.80;;;;;;;;;;4952305;29;20039;-81
2023/10/18 01:24:20;;;;;;;13.80;8.93;;;;;;;;;;4950317;28;20035;-82
2023/10/18 01:27:05;;;;;;;13.52;8.55;;;;;;;;;;4961448;28;20421;-82
2023/10/18 01:29:51;;;;;;;13.93;8.13;;;;;;;;;;4953923;28;20023;-82
2023/10/18 01:32:36;;;;;;;12.65;8.25;;;;;;;;;;4954525;28;20027;-82
2023/10/18 01:35:21;;;;;;;14.93;9.10;;;;;;;;;;4957078;28;20537;-82
2023/10/18 01:38:13;;;;;;;14.48;8.88;;;;;;;;;;4952339;28;20023;-83
2023/10/18 01:41:08;;;;;;;13.48;8.60;;;;;;;;;;4952588;28;20043;-83
2023/10/18 01:44:05;;;;;;;13.25;8.25;;;;;;;;;;4949712;29;20054;-83
2023/10/18 01:46:50;;;;;;;13.27;9.02;;;;;;;;;;4958065;28;20051;-83
2023/10/18 01:49:43;;;;;;;13.55;8.35;;;;;;;;;;4953024;29;20034;-82
2023/10/18 01:52:29;;;;;;;13.88;9.85;;;;;;;;;;4947677;29;20485;-83
2023/10/18 01:55:14;;;;;;;13.55;8.40;;;;;;;;;;4949967;29;20034;-83
2023/10/18 01:58:00;;;;;;;11.88;7.45;;;;;;;;;;4953071;29;20041;-83
2023/10/18 02:00:46;;;;;;;12.95;8.18;;;;;;;;;;4943205;28;20450;-82
2023/10/18 02:03:31;;;;;;;15.30;8.98;;;;;;;;;;4948206;29;20035;-82
2023/10/18 02:06:17;;;;;;;13.32;8.50;;;;;;;;;;4953849;28;20019;-82
2023/10/18 02:09:09;;;;;;;14.48;8.82;;;;;;;;;;4937971;29;20054;-81
2023/10/18 02:11:55;;;;;;;14.65;8.05;;;;;;;;;;4953327;28;20046;-81
2023/10/18 02:14:40;;;;;;;15.05;9.02;;;;;;;;;;4948585;28;20098;-81
2023/10/18 02:17:27;;;;;;;14.90;8.38;;;;;;;;;;4950840;28;20055;-81
2023/10/18 02:20:25;;;;;;;14.93;8.45;;;;;;;;;;4952406;29;20035;-81
2023/10/18 02:23:13;;;;;;;13.75;7.80;;;;;;;;;;4951739;29;20118;-80
2023/10/18 02:25:58;;;;;;;14.13;9.10;;;;;;;;;;4950949;29;20468;-80
2023/10/18 02:28:45;;;;;;;15.13;9.15;;;;;;;;;;4951126;29;20067;-80
2023/10/18 02:31:30;;;;;;;13.90;8.63;;;;;;;;;;4950859;28;20098;-82
2023/10/18 02:34:16;;;;;;;17.13;9.20;;;;;;;;;;4952266;29;20082;-83
2023/10/18 02:37:04;;;;;;;16.23;9.73;;;;;;;;;;4951158;28;20489;-82
2023/10/18 02:39:49;;;;;;;13.75;9.18;;;;;;;;;;4935923;28;20035;-81
2023/10/18 02:42:35;;;;;;;15.23;9.73;;;;;;;;;;4951612;28;20294;-82
2023/10/18 02:45:22;;;;;;;15.40;9.77;;;;;;;;;;4947440;29;20290;-82
2023/10/18 02:48:13;;;;;;;13.95;8.63;;;;;;;;;;4949002;28;20121;-83
2023/10/18 02:51:02;;;;;;;13.88;9.00;;;;;;;;;;4952761;28;20469;-83
2023/10/18 02:53:54;;;;;;;15.38;9.85;;;;;;;;;;4943056;28;20031;-82
2023/10/18 02:56:39;;;;;;;13.85;8.02;;;;;;;;;;4936826;28;20489;-82
2023/10/18 02:59:25;;;;;;;16.67;9.60;;;;;;;;;;4951428;28;20118;-82
2023/10/18 03:02:17;;;;;;;17.48;9.05;;;;;;;;;;4946157;29;20537;-82
2023/10/18 03:05:06;;;;;;;19.02;10.38;;;;;;;;;;4954260;28;20034;-82
2023/10/18 03:07:51;;;;;;;16.35;9.07;;;;;;;;;;4951788;28;20027;-82
2023/10/18 03:10:44;;;;;;;13.88;8.88;;;;;;;;;;4949197;28;20027;-82
2023/10/18 03:13:30;;;;;;;14.00;8.82;;;;;;;;;;4947856;29;20561;-82
2023/10/18 03:16:18;;;;;;;13.60;9.30;;;;;;;;;;4953124;28;20049;-82
2023/10/18 03:19:09;;;;;;;16.75;9.88;;;;;;;;;;4949433;28;20057;-82
2023/10/18 03:21:55;;;;;;;15.23;9.68;;;;;;;;;;4945138;29;20430;-82
2023/10/18 03:24:40;;;;;;;13.35;9.13;;;;;;;;;;4954826;28;20031;-83
2023/10/18 03:27:33;;;;;;;18.73;9.80;;;;;;;;;;4947975;28;20524;-83
2023/10/18 03:30:18;;;;;;;14.68;9.13;;;;;;;;;;4962200;28;20030;-82
2023/10/18 03:33:07;;;;;;;13.20;8.90;;;;;;;;;;4949786;28;20027;-83
2023/10/18 03:36:17;;;;;;;16.65;9.85;;;;;;;;;;4952366;29;20051;-82
2023/10/18 03:39:15;;;;;;;14.88;9.10;;;;;;;;;;4948917;28;20027;-82
2023/10/18 03:42:02;;;;;;;16.42;10.40;;;;;;;;;;4951929;28;20038;-82
2023/10/18 03:44:51;;;;;;;16.27;9.18;;;;;;;;;;4942749;29;20043;-82
2023/10/18 03:47:36;;;;;;;17.75;9.60;;;;;;;;;;4950448;29;20023;-84
2023/10/18 03:50:28;;;;;;;17.25;10.32;;;;;;;;;;4954285;28;20114;-84
2023/10/18 03:53:13;;;;;;;17.45;11.07;;;;;;;;;;4954083;28;20034;-83
2023/10/18 03:55:59;;;;;;;15.60;8.88;;;;;;;;;;4948281;29;20030;-85
2023/10/18 03:58:49;;;;;;;16.52;9.38;;;;;;;;;;4952285;28;20031;-84
2023/10/18 04:01:44;;;;;;;15.07;9.82;;;;;;;;;;4950757;29;20031;-83
2023/10/18 04:04:36;;;;;;;15.38;10.23;;;;;;;;;;4963323;28;20034;-82
2023/10/18 04:07:24;;;;;;;18.05;10.43;;;;;;;;;;4952634;29;20730;-83
2023/10/18 04:10:12;;;;;;;19.52;9.93;;;;;;;;;;4937585;29;20035;-82
2023/10/18 04:12:58;;;;;;;15.13;9.75;;;;;;;;;;4950572;28;20420;-82
2023/10/18 04:15:45;;;;;;;14.15;9.35;;;;;;;;;;4953124;29;20027;-83
2023/10/18 04:18:30;;;;;;;14.68;10.25;;;;;;;;;;4949943;28;20039;-82
2023/10/18 04:21:16;;;;;;;17.92;10.57;;;;;;;;;;4948225;28;20508;-81
2023/10/18 04:24:04;;;;;;;15.05;9.65;;;;;;;;;;4951831;29;20043;-81
2023/10/18 04:26:52;;;;;;;15.18;10.20;;;;;;;;;;4951212;28;20081;-81
2023/10/18 04:29:39;;;;;;;16.38;10.45;;;;;;;;;;4948531;29;20074;-82
2023/10/18 04:32:25;;;;;;;21.95;11.27;;;;;;;;;;4949495;28;20070;-81
2023/10/18 04:35:11;;;;;;;20.70;11.90;;;;;;;;;;4950880;28;20051;-81
2023/10/18 04:37:56;;;;;;;21.85;10.95;;;;;;;;;;4952548;28;20023;-79
2023/10/18 04:40:48;;;;;;;16.73;10.05;;;;;;;;;;4953955;28;20273;-78
2023/10/18 04:43:37;;;;;;;16.70;10.25;;;;;;;;;;4952762;28;20154;-78
2023/10/18 04:46:26;;;;;;;17.42;11.07;;;;;;;;;;4949647;28;20019;-79
2023/10/18 04:51:57;;;;;;;16.90;10.73;;;;;;;;;;4954160;28;20031;-78
2023/10/18 04:54:53;;;;;;;16.58;10.27;;;;;;;;;;4950565;29;20139;-78
2023/10/18 04:57:40;;;;;;;16.88;10.50;;;;;;;;;;4967129;28;20062;-78
2023/10/18 05:00:25;;;;;;;15.65;9.80;;;;;;;;;;4954777;28;20082;-80
2023/10/18 05:03:13;;;;;;;16.52;10.00;;;;;;;;;;4949657;29;20384;-81
2023/10/18 05:05:58;;;;;;;19.27;11.13;;;;;;;;;;4954175;29;20039;-82
2023/10/18 05:08:48;;;;;;;17.52;9.93;;;;;;;;;;4948374;29;20148;-81
2023/10/18 05:11:46;;;;;;;16.15;9.80;;;;;;;;;;4964118;28;20078;-82
2023/10/18 05:14:42;;;;;;;14.95;9.38;;;;;;;;;;4947454;29;20047;-83
2023/10/18 05:17:32;;;;;;;16.08;10.30;;;;;;;;;;4949744;29;20412;-81
2023/10/18 05:23:04;;;;;;;18.23;10.80;;;;;;;;;;4951401;29;20038;-81
2023/10/18 05:26:08;;;;;;;16.65;10.50;;;;;;;;;;4946683;29;20035;-81
2023/10/18 05:29:00;;;;;;;16.38;10.93;;;;;;;;;;4937996;29;20035;-79
2023/10/18 05:34:54;;;;;;;19.23;11.82;;;;;;;;;;4946064;28;20023;-79
2023/10/18 05:37:41;;;;;;;18.23;11.52;;;;;;;;;;4963879;28;20039;-80
2023/10/18 05:43:35;;;;;;;18.67;12.50;;;;;;;;;;4950179;28;20077;-80
2023/10/18 05:46:21;;;;;;;18.85;12.18;;;;;;;;;;4946852;28;20111;-81
2023/10/18 05:49:25;;;;;;;22.05;12.43;;;;;;;;;;4948022;29;20431;-81
2023/10/18 05:54:56;;;;;;;19.83;11.68;;;;;;;;;;4942731;28;20031;-80
2023/10/18 05:57:45;;;;;;;22.88;14.13;;;;;;;;;;4949796;28;20027;-80
2023/10/18 06:00:32;;;;;;;21.27;12.38;;;;;;;;;;4949642;29;20043;-80
2023/10/18 06:03:19;;;;;;;18.70;12.68;;;;;;;;;;4938168;29;20038;-80
2023/10/18 06:06:08;;;;;;;18.55;11.88;;;;;;;;;;4949312;29;20086;-80
2023/10/18 06:08:57;;;;;;;18.52;11.07;;;;;;;;;;4949979;29;20070;-80
2023/10/18 06:11:48;;;;;;;18.23;12.25;;;;;;;;;;4949133;29;20042;-79
2023/10/18 06:14:39;;;;;;;17.15;11.55;;;;;;;;;;4949327;29;20200;-82
2023/10/18 06:20:29;;;;;;;17.90;12.75;;;;;;;;;;4958889;28;20031;-80
2023/10/18 06:26:28;;;;;;;17.67;12.27;;;;;;;;;;4949272;28;20035;-81
2023/10/18 06:29:22;;;;;;;21.70;13.73;;;;;;;;;;4944268;29;20035;-79
2023/10/18 06:32:10;;;;;;;17.95;10.90;;;;;;;;;;4949015;29;20118;-80
2023/10/18 06:34:58;;;;;;;21.65;12.95;;;;;;;;;;4949747;29;20035;-79
2023/10/18 06:37:44;;;;;;;19.42;12.63;;;;;;;;;;4950252;28;20019;-81
2023/10/18 06:40:43;;;;;;;26.17;12.85;;;;;;;;;;4950676;28;20034;-80
2023/10/18 06:43:29;;;;;;;18.67;12.55;;;;;;;;;;4949403;29;20227;-80
2023/10/18 06:46:15;;;;;;;21.20;12.68;;;;;;;;;;4935455;29;20069;-79
2023/10/18 06:49:01;;;;;;;21.30;13.27;;;;;;;;;;4955984;28;20537;-79
2023/10/18 06:54:55;;;;;;;24.00;14.43;;;;;;;;;;4952197;28;20070;-79
2023/10/18 06:57:42;;;;;;;23.20;13.75;;;;;;;;;;4960903;29;20046;-80
2023/10/18 07:00:30;;;;;;;20.70;13.65;;;;;;;;;;4948810;29;20413;-78
2023/10/18 07:03:24;;;;;;;22.13;13.18;;;;;;;;;;4945864;28;20742;-79
2023/10/18 07:06:18;;;;;;;21.80;13.18;;;;;;;;;;4942983;29;20063;-79
2023/10/18 07:09:24;;;;;;;21.25;12.40;;;;;;;;;;4931675;29;20027;-80
2023/10/18 07:12:12;;;;;;;21.90;13.35;;;;;;;;;;4938271;29;20074;-80
2023/10/18 07:14:58;;;;;;;25.27;13.33;;;;;;;;;;4944266;29;20111;-80
2023/10/18 07:17:46;;;;;;;20.95;13.95;;;;;;;;;;4946848;29;20116;-80
2023/10/18 07:20:33;;;;;;;20.23;12.60;;;;;;;;;;4960740;28;20043;-80
2023/10/18 07:23:21;;;;;;;22.55;13.52;;;;;;;;;;4945269;28;20039;-80
2023/10/18 07:29:16;;;;;;;24.88;15.05;;;;;;;;;;4946641;28;20795;-81
2023/10/18 07:32:06;;;;;;;24.35;13.48;;;;;;;;;;4940622;29;20398;-80
2023/10/18 07:34:56;;;;;;;23.27;13.93;;;;;;;;;;4944427;29;20032;-80
2023/10/18 07:37:43;;;;;;;22.42;13.98;;;;;;;;;;4930422;29;20387;-81
2023/10/18 07:40:40;;;;;;;20.67;14.45;;;;;;;;;;4941951;29;20098;-81
2023/10/18 07:43:26;;;;;;;18.88;13.15;;;;;;;;;;4942826;28;20546;-81
2023/10/18 07:46:18;;;;;;;21.05;13.23;;;;;;;;;;4930920;29;20043;-80
2023/10/18 07:49:11;;;;;;;21.27;14.35;;;;;;;;;;4947352;29;20042;-81
2023/10/18 07:51:58;;;;;;;18.95;13.27;;;;;;;;;;4949856;28;20059;-81
2023/10/18 07:54:48;;;;;;;20.13;14.00;;;;;;;;;;4947505;28;20446;-80
2023/10/18 07:57:34;;;;;;;;;;;;;;;;;;4949742;28;20033;-79
2023/10/18 08:00:22;;;;;;;20.02;13.15;;;;;;;;;;4948376;29;19938;-80
2023/10/18 08:03:08;;;;;;;19.38;12.23;;;;;;;;;;4947969;28;20031;-81
2023/10/18 08:05:55;;;;;;;18.65;12.88;;;;;;;;;;4948412;29;20035;-79
2023/10/18 08:08:41;;;;;;;19.60;13.70;;;;;;;;;;4961102;28;20339;-79
2023/10/18 08:11:27;;;;;;;20.17;13.52;;;;;;;;;;4953404;28;20031;-81
2023/10/18 08:14:27;;;;;;;23.33;14.27;;;;;;;;;;4949406;29;20028;-79
2023/10/18 08:17:29;;;;;;;21.15;13.52;;;;;;;;;;4940997;29;20030;-79
2023/10/18 08:26:06;;;;;;;22.33;13.90;;;;;;;;;;4961301;28;20386;-78
2023/10/18 08:28:53;;;;;;;19.83;13.32;;;;;;;;;;4949026;28;20035;-79
2023/10/18 08:31:39;;;;;;;19.95;14.30;;;;;;;;;;4951303;29;20039;-80
2023/10/18 08:34:24;;;;;;;19.60;12.32;;;;;;;;;;4951683;29;20513;-79
2023/10/18 08:37:16;;;;;;;19.15;13.05;;;;;;;;;;4951595;29;20042;-79
2023/10/18 08:40:06;;;;;;;19.95;11.82;;;;;;;;;;4951506;29;20078;-80
2023/10/18 08:42:52;;;;;;;16.45;11.20;;;;;;;;;;4954320;29;20038;-81
2023/10/18 08:45:45;;;;;;;19.40;12.98;;;;;;;;;;4964345;28;20034;-81
2023/10/18 08:48:38;;;;;;;16.30;11.65;;;;;;;;;;4951192;29;20046;-81
2023/10/18 08:51:24;;;;;;;20.70;13.73;;;;;;;;;;4944040;28;20469;-81
2023/10/18 08:54:17;;;;;;;17.05;11.80;;;;;;;;;;4950710;28;20123;-80
2023/10/18 08:57:06;;;;;;;17.42;12.43;;;;;;;;;;4953746;28;20041;-81
2023/10/18 08:59:52;;;;;;;19.63;12.27;;;;;;;;;;4942315;28;20035;-81
2023/10/18 09:02:40;;;;;;;19.08;11.52;;;;;;;;;;4950884;29;20055;-82
2023/10/18 09:05:25;;;;;;;14.18;10.05;;;;;;;;;;4958383;28;20118;-81
2023/10/18 09:08:19;;;;;;;15.77;10.13;;;;;;;;;;4953044;29;20543;-80
2023/10/18 09:11:09;;;;;;;14.32;10.43;;;;;;;;;;4951192;29;20090;-81
2023/10/18 09:14:07;;;;;;;15.88;10.30;;;;;;;;;;4950432;28;20051;-81
2023/10/18 09:17:00;;;;;;;14.27;9.95;;;;;;;;;;4947824;29;20726;-81
2023/10/18 09:19:51;;;;;;;14.30;8.63;;;;;;;;;;4950364;29;20047;-80
2023/10/18 09:22:38;;;;;;;15.52;9.75;;;;;;;;;;4951567;28;20035;-80
2023/10/18 09:25:24;;;;;;;12.35;8.35;;;;;;;;;;4949986;28;20106;-80
2023/10/18 09:28:10;;;;;;;11.30;9.00;;;;;;;;;;4964132;28;20422;-80
2023/10/18 09:31:01;;;;;;;13.02;8.57;;;;;;;;;;4950579;29;20031;-80
2023/10/18 09:33:50;;;;;;;12.57;8.70;;;;;;;;;;4963720;28;20041;-80
2023/10/18 09:36:42;;;;;;;14.77;8.88;;;;;;;;;;4945000;29;20129;-80
2023/10/18 09:39:37;;;;;;;14.07;9.88;;;;;;;;;;4950462;28;20046;-81
2023/10/18 09:42:22;;;;;;;14.57;9.55;;;;;;;;;;4949598;28;20038;-81
2023/10/18 09:45:08;;;;;;;11.52;7.85;;;;;;;;;;4950223;29;20031;-80
2023/10/18 09:47:54;;;;;;;15.90;9.73;;;;;;;;;;4949698;29;20031;-80
2023/10/18 09:50:42;;;;;;;15.50;9.65;;;;;;;;;;4954609;28;20042;-80
2023/10/18 09:53:30;;;;;;;15.15;10.55;;;;;;;;;;4949994;29;20027;-80
2023/10/18 09:56:24;;;;;;;18.13;10.80;;;;;;;;;;4950219;29;20067;-80
2023/10/18 09:59:16;;;;;;;15.70;10.40;;;;;;;;;;4953397;28;20031;-82
2023/10/18 10:02:07;;;;;;;19.60;11.73;;;;;;;;;;4950725;29;20027;-81
2023/10/18 10:04:54;;;;;;;19.13;11.43;;;;;;;;;;4949864;29;20035;-80
2023/10/18 10:07:41;;;;;;;17.88;11.07;;;;;;;;;;4950181;29;20118;-82
2023/10/18 10:10:43;;;;;;;23.63;12.27;;;;;;;;;;4949574;29;20034;-81
2023/10/18 10:13:29;;;;;;;15.02;10.93;;;;;;;;;;4967707;28;20031;-82
2023/10/18 10:16:15;;;;;;;17.90;11.45;;;;;;;;;;4944910;29;20107;-81
2023/10/18 10:19:04;;;;;;;20.08;11.02;;;;;;;;;;4962632;28;20050;-81
2023/10/18 10:21:53;;;;;;;20.77;12.80;;;;;;;;;;4948487;29;20039;-81
2023/10/18 10:24:42;;;;;;;19.20;11.80;;;;;;;;;;4952839;28;20049;-80
2023/10/18 10:27:27;;;;;;;23.05;11.93;;;;;;;;;;4922959;29;20363;-81
2023/10/18 10:33:12;;;;;;;18.60;11.52;;;;;;;;;;4948760;28;20131;-81
2023/10/18 10:36:04;;;;;;;19.60;12.52;;;;;;;;;;4949320;29;20118;-80
2023/10/18 10:38:55;;;;;;;16.88;10.55;;;;;;;;;;4948898;29;20063;-81
2023/10/18 10:41:41;;;;;;;18.10;9.95;;;;;;;;;;4941037;29;20035;-81
2023/10/18 10:44:30;;;;;;;16.48;11.45;;;;;;;;;;4948550;28;20046;-80
2023/10/18 10:47:31;;;;;;;15.23;10.77;;;;;;;;;;4949769;29;20066;-81
2023/10/18 10:50:36;;;;;;;13.40;9.20;;;;;;;;;;4942037;29;20050;-81
2023/10/18 10:53:35;;;;;;;18.33;9.65;;;;;;;;;;4947789;28;20027;-81
2023/10/18 10:56:26;;;;;;;15.52;8.60;;;;;;;;;;4950586;28;20050;-80
2023/10/18 10:59:22;;;;;;;14.18;9.50;;;;;;;;;;4948492;29;20032;-80
2023/10/18 11:02:07;;;;;;;16.42;8.45;;;;;;;;;;4953246;28;20046;-80
2023/10/18 11:05:00;;;;;;;13.43;7.82;;;;;;;;;;4945946;28;20083;-80
2023/10/18 11:07:47;;;;;;;13.32;8.45;;;;;;;;;;4950649;29;20027;-80
2023/10/18 11:10:39;;;;;;;14.40;8.65;;;;;;;;;;4947223;29;20035;-80
2023/10/18 11:13:25;;;;;;;17.63;7.90;;;;;;;;;;4948792;29;20035;-80
2023/10/18 11:16:11;;;;;;;13.40;8.18;;;;;;;;;;4948796;29;20050;-81
2023/10/18 11:18:59;;;;;;;12.48;8.18;;;;;;;;;;4962191;28;20082;-83
2023/10/18 11:21:44;;;;;;;18.05;9.93;;;;;;;;;;4948874;29;20031;-82
2023/10/18 11:24:30;;;;;;;16.88;9.27;;;;;;;;;;4948618;28;21800;-82
2023/10/18 11:27:17;;;;;;;14.02;9.50;;;;;;;;;;4948897;29;20034;-82
2023/10/18 11:30:22;;;;;;;18.58;9.93;;;;;;;;;;4949907;28;20118;-82
2023/10/18 11:33:15;;;;;;;13.98;9.80;;;;;;;;;;4953198;28;20039;-82
2023/10/18 11:36:02;;;;;;;15.55;9.68;;;;;;;;;;4948146;29;20082;-82
2023/10/18 11:41:56;;;;;;;17.80;10.27;;;;;;;;;;4948553;28;20035;-82
2023/10/18 11:44:41;;;;;;;;;;;;;;;;;;4953259;28;20031;-81
2023/10/18 11:47:27;;;;;;;18.73;10.70;;;;;;;;;;4952655;29;20648;-81
2023/10/18 11:50:13;;;;;;;23.65;10.85;;;;;;;;;;4944224;28;20019;-81
2023/10/18 11:53:06;;;;;;;17.30;9.25;;;;;;;;;;4950664;28;20555;-82
2023/10/18 11:55:55;;;;;;;15.63;9.63;;;;;;;;;;4957410;29;20026;-80
2023/10/18 11:58:57;;;;;;;14.40;9.20;;;;;;;;;;4946444;29;20035;-80
2023/10/18 12:01:45;;;;;;;13.07;8.55;;;;;;;;;;4952245;28;20023;-82
2023/10/18 12:04:40;;;;;;;17.35;10.00;;;;;;;;;;4948611;29;20031;-83
2023/10/18 12:07:26;;;;;;;15.60;9.45;;;;;;;;;;4946395;28;20505;-81
2023/10/18 12:10:18;;;;;;;14.48;9.02;;;;;;;;;;4951502;29;20469;-81
2023/10/18 12:13:07;;;;;;;15.27;9.05;;;;;;;;;;4939460;29;20023;-79
2023/10/18 12:15:52;;;;;;;14.50;9.55;;;;;;;;;;4951616;29;20023;-81
2023/10/18 12:18:38;;;;;;;17.85;8.32;;;;;;;;;;4941908;28;20043;-81
2023/10/18 12:21:29;;;;;;;16.42;7.75;;;;;;;;;;4951269;28;20123;-80
2023/10/18 12:24:18;;;;;;;17.90;9.55;;;;;;;;;;4939709;29;20500;-80
2023/10/18 12:27:33;;;;;;;13.73;8.63;;;;;;;;;;4948644;29;20032;-82
2023/10/18 12:30:28;;;;;;;16.00;9.30;;;;;;;;;;4951036;29;20111;-82
2023/10/18 12:33:23;;;;;;;18.70;10.02;;;;;;;;;;4951962;29;20038;-81
2023/10/18 12:36:09;;;;;;;17.52;10.23;;;;;;;;;;4951322;29;20082;-81
2023/10/18 12:38:58;;;;;;;14.30;9.25;;;;;;;;;;4951228;29;20035;-83
2023/10/18 12:41:43;;;;;;;16.60;8.20;;;;;;;;;;4965284;28;20078;-83
2023/10/18 12:44:29;;;;;;;18.30;9.07;;;;;;;;;;4951498;29;20031;-82
2023/10/18 12:47:19;;;;;;;13.50;8.07;;;;;;;;;;4950743;29;20112;-82
2023/10/18 12:50:05;;;;;;;18.05;8.35;;;;;;;;;;4942323;29;20033;-82
2023/10/18 12:52:52;;;;;;;14.65;9.90;;;;;;;;;;4949407;29;20362;-82
2023/10/18 12:55:43;;;;;;;12.13;6.90;;;;;;;;;;4951002;28;20031;-82
2023/10/18 12:58:29;;;;;;;14.85;7.38;;;;;;;;;;4941139;29;20031;-82
2023/10/18 13:01:14;;;;;;;12.00;7.05;;;;;;;;;;4938266;28;20070;-81
2023/10/18 13:03:59;;;;;;;14.15;7.57;;;;;;;;;;4951050;29;20039;-81
2023/10/18 13:06:45;;;;;;;14.82;7.45;;;;;;;;;;4950322;29;20041;-81
2023/10/18 13:09:31;;;;;;;11.60;6.72;;;;;;;;;;4951085;29;20045;-81
2023/10/18 13:12:16;;;;;;;9.88;6.40;;;;;;;;;;4950644;29;20031;-81
2023/10/18 13:15:01;;;;;;;11.25;6.05;;;;;;;;;;4951146;29;20106;-81
2023/10/18 13:17:46;;;;;;;11.88;7.82;;;;;;;;;;4948425;29;20051;-81
2023/10/18 13:20:34;;;;;;;9.50;5.88;;;;;;;;;;4950321;29;20023;-80
2023/10/18 13:23:20;;;;;;;11.18;7.13;;;;;;;;;;4953497;28;20031;-81
2023/10/18 13:26:05;;;;;;;11.20;6.53;;;;;;;;;;4947099;29;20041;-81
2023/10/18 13:28:51;;;;;;;11.98;6.60;;;;;;;;;;4950529;29;20037;-81
2023/10/18 13:31:36;;;;;;;12.15;6.40;;;;;;;;;;4954097;28;20452;-81
2023/10/18 13:34:21;;;;;;;9.73;5.13;;;;;;;;;;4939864;28;20370;-81
2023/10/18 13:37:10;;;;;;;12.48;5.88;;;;;;;;;;4950810;29;20035;-81
2023/10/18 13:39:55;;;;;;;10.00;4.55;;;;;;;;;;4941483;29;20477;-83
2023/10/18 13:42:41;;;;;;;7.70;4.63;;;;;;;;;;4951381;28;20791;-83
2023/10/18 13:45:29;;;;;;;8.48;4.90;;;;;;;;;;4940186;29;20500;-82
2023/10/18 13:48:15;;;;;;;6.85;4.00;;;;;;;;;;4960529;28;20031;-82
2023/10/18 13:51:02;;;;;;;5.10;3.40;;;;;;;;;;4951205;28;20500;-82
2023/10/18 13:53:47;;;;;;;7.38;3.45;;;;;;;;;;4955082;28;20039;-82
2023/10/18 13:56:34;;;;;;;9.60;4.10;;;;;;;;;;4938034;28;20062;-82
2023/10/18 13:59:19;;;;;;;7.75;3.83;;;;;;;;;;4950133;29;20023;-83
2023/10/18 14:02:06;;;;;;;5.93;3.97;;;;;;;;;;4954376;28;20354;-83
2023/10/18 14:04:51;;;;;;;10.35;5.35;;;;;;;;;;4950027;29;20031;-82
2023/10/18 14:07:37;;;;;;;5.78;3.63;;;;;;;;;;4950157;28;20042;-82
2023/10/18 14:10:28;;;;;;;8.70;4.47;;;;;;;;;;4950566;29;20122;-82
2023/10/18 14:13:14;;;;;;;9.13;5.53;;;;;;;;;;4949222;29;20089;-83
2023/10/18 14:15:59;;;;;;;9.20;5.13;;;;;;;;;;4953353;28;20477;-81
2023/10/18 14:18:47;;;;;;;9.55;5.05;;;;;;;;;;4951938;29;20133;-80
2023/10/18 14:21:33;;;;;;;8.65;4.50;;;;;;;;;;4951554;28;20059;-80
2023/10/18 14:24:21;;;;;;;10.27;4.70;;;;;;;;;;4948827;28;20058;-80
2023/10/18 14:27:09;;;;;;;6.90;3.85;;;;;;;;;;4947674;29;20228;-81
2023/10/18 14:29:55;;;;;;;7.88;3.83;;;;;;;;;;4949975;29;20373;-81
2023/10/18 14:32:42;;;;;;;6.78;3.97;;;;;;;;;;4948499;29;20377;-81
2023/10/18 14:35:27;;;;;;;7.00;3.90;;;;;;;;;;4947584;29;20039;-80
2023/10/18 14:38:13;;;;;;;9.27;5.07;;;;;;;;;;4954059;29;20027;-79
2023/10/18 14:40:58;;;;;;;10.40;4.68;;;;;;;;;;4961254;29;20020;-80
2023/10/18 14:43:44;;;;;;;9.90;4.68;;;;;;;;;;4960809;29;20071;-80
2023/10/18 14:46:29;;;;;;;5.70;3.50;;;;;;;;;;4964607;29;20031;-80
2023/10/18 14:49:14;;;;;;;13.43;5.45;;;;;;;;;;4965673;29;20089;-81
2023/10/18 14:52:00;;;;;;;8.38;4.78;;;;;;;;;;4958837;29;20066;-80
2023/10/18 14:54:45;;;;;;;13.48;5.45;;;;;;;;;;4948506;29;20247;-82
2023/10/18 14:57:55;;;;;;;6.70;4.88;;;;;;;;;;4949636;29;20039;-82
2023/10/18 15:00:40;;;;;;;7.72;4.57;;;;;;;;;;4952584;29;20438;-82
2023/10/18 15:03:26;;;;;;;10.65;5.63;;;;;;;;;;4948289;28;20031;-81
2023/10/18 15:06:17;;;;;;;11.05;6.50;;;;;;;;;;4945578;28;20039;-80
2023/10/18 15:09:02;;;;;;;13.57;6.93;;;;;;;;;;4948561;29;20031;-80
2023/10/18 15:11:49;;;;;;;13.10;6.43;;;;;;;;;;4953873;28;20039;-80
2023/10/18 15:14:34;;;;;;;12.00;6.13;;;;;;;;;;4946816;29;20059;-80
2023/10/18 15:17:19;;;;;;;11.50;7.45;;;;;;;;;;4948291;28;20055;-80
2023/10/18 15:20:05;;;;;;;10.90;7.65;;;;;;;;;;4914924;29;20032;-81
2023/10/18 15:22:52;;;;;;;11.40;6.25;;;;;;;;;;4919031;29;20119;-82
2023/10/18 15:25:41;;;;;;;9.88;6.53;;;;;;;;;;4925576;29;20122;-80
2023/10/18 15:28:26;;;;;;;9.45;6.88;;;;;;;;;;4920111;29;20078;-80
2023/10/18 15:31:12;;;;;;;10.50;6.88;;;;;;;;;;4920528;29;20038;-81
2023/10/18 15:33:57;;;;;;;11.50;7.45;;;;;;;;;;4920522;29;20034;-81
2023/10/18 15:36:47;;;;;;;14.75;8.73;;;;;;;;;;4918481;29;20108;-81
2023/10/18 15:39:32;;;;;;;12.20;7.90;;;;;;;;;;4908832;29;20028;-83
2023/10/18 15:42:17;;;;;;;10.60;7.32;;;;;;;;;;4920275;29;20036;-80
2023/10/18 15:45:03;;;;;;;11.80;7.55;;;;;;;;;;4923832;29;20490;-80
2023/10/18 15:47:48;;;;;;;12.98;7.72;;;;;;;;;;4923327;29;20043;-80
2023/10/18 15:50:35;;;;;;;16.05;8.32;;;;;;;;;;4918798;29;20055;-80
2023/10/18 15:53:23;;;;;;;13.10;9.43;;;;;;;;;;4916107;29;20521;-81
2023/10/18 15:56:09;;;;;;;15.10;8.70;;;;;;;;;;4917786;29;20434;-80
2023/10/18 15:58:55;;;;;;;10.82;8.25;;;;;;;;;;4919910;29;20039;-79
2023/10/18 16:01:42;;;;;;;14.15;9.02;;;;;;;;;;4920124;29;20036;-81
2023/10/18 16:04:27;;;;;;;12.43;8.90;;;;;;;;;;4940641;29;20498;-80
2023/10/18 16:07:13;;;;;;;13.27;8.02;;;;;;;;;;4916983;29;20471;-80
2023/10/18 16:09:58;;;;;;;13.63;8.55;;;;;;;;;;4902763;29;20099;-82
2023/10/18 16:12:45;;;;;;;14.65;9.23;;;;;;;;;;4918129;29;20034;-82
2023/10/18 16:15:34;;;;;;;18.83;11.10;;;;;;;;;;4929750;29;20386;-80
2023/10/18 16:18:20;;;;;;;15.52;9.50;;;;;;;;;;4924248;29;20071;-81
2023/10/18 16:21:06;;;;;;;18.83;10.20;;;;;;;;;;4936327;29;20532;-81
2023/10/18 16:23:52;;;;;;;14.23;8.45;;;;;;;;;;4928906;29;20031;-82
2023/10/18 16:26:37;;;;;;;14.80;10.23;;;;;;;;;;4932394;29;20026;-83
2023/10/18 16:29:22;;;;;;;16.52;11.88;;;;;;;;;;4921720;29;20043;-83
2023/10/18 16:32:08;;;;;;;17.13;9.68;;;;;;;;;;4932385;29;20038;-82
2023/10/18 16:34:54;;;;;;;12.30;8.57;;;;;;;;;;4929057;29;20059;-82
2023/10/18 16:37:39;;;;;;;14.25;9.18;;;;;;;;;;4933248;29;20031;-82
2023/10/18 16:40:24;;;;;;;14.05;9.32;;;;;;;;;;4932458;29;20028;-81
2023/10/18 16:43:09;;;;;;;13.98;9.55;;;;;;;;;;4931467;29;20115;-82
2023/10/18 16:45:55;;;;;;;19.58;9.77;;;;;;;;;;4932748;29;20054;-81
2023/10/18 16:48:41;;;;;;;14.77;9.30;;;;;;;;;;4935361;29;20039;-82
2023/10/18 16:51:29;;;;;;;13.85;8.82;;;;;;;;;;4922672;29;20027;-86
2023/10/18 16:54:14;;;;;;;15.93;10.80;;;;;;;;;;4932674;29;20039;-82
2023/10/18 16:56:59;;;;;;;15.68;9.75;;;;;;;;;;4945808;29;20067;-83
2023/10/18 16:59:45;;;;;;;14.63;9.25;;;;;;;;;;4939353;29;20066;-84
2023/10/18 17:02:30;;;;;;;18.63;10.93;;;;;;;;;;4929686;29;20024;-83
2023/10/18 17:05:15;;;;;;;15.23;9.65;;;;;;;;;;4933212;29;20035;-82
2023/10/18 17:08:00;;;;;;;13.00;9.43;;;;;;;;;;4934636;29;20032;-81
2023/10/18 17:10:46;;;;;;;14.45;8.77;;;;;;;;;;4928860;29;20038;-82
2023/10/18 17:13:32;;;;;;;13.82;9.05;;;;;;;;;;4918977;29;20035;-81